Time;durP1;ratioP1;P1;durP2;ratioP2;P2;SDS_P1;SDS_P2;PMS_P1;PMS_P2;Temp;Humidity;BMP_temperature;BMP_pressure;BME280_temperature;BME280_humidity;BME280_pressure;Samples;Min_cycle;Max_cycle;Signal;HPM_P1;HPM_P2
2024/02/26 00:01:47;;;;;;;19.85;3.63;;;27.60;40.90;;;;;;5113399;27;20072;-56
2024/02/26 00:04:13;;;;;;;7.22;3.08;;;27.80;41.00;;;;;;5116683;27;20063;-59
2024/02/26 00:06:42;;;;;;;18.23;3.40;;;28.00;40.90;;;;;;5115162;27;20072;-59
2024/02/26 00:09:12;;;;;;;13.80;2.92;;;28.00;40.70;;;;;;5113067;27;20068;-58
2024/02/26 00:11:39;;;;;;;13.13;2.70;;;28.10;41.20;;;;;;5115893;27;20597;-59
2024/02/26 00:14:05;;;;;;;23.17;2.90;;;28.00;41.20;;;;;;5114570;27;20116;-58
2024/02/26 00:16:32;;;;;;;17.58;4.07;;;28.00;40.90;;;;;;5112293;27;20078;-59
2024/02/26 00:18:58;;;;;;;17.38;3.08;;;28.00;40.80;;;;;;5111941;27;20076;-65
2024/02/26 00:21:25;;;;;;;19.73;3.83;;;27.90;40.80;;;;;;5116222;28;20074;-59
2024/02/26 00:23:52;;;;;;;21.20;3.22;;;27.90;40.60;;;;;;5112569;27;20064;-59
2024/02/26 00:26:19;;;;;;;19.58;4.00;;;27.80;40.60;;;;;;5113749;27;20086;-59
2024/02/26 00:28:45;;;;;;;22.00;3.88;;;27.70;41.00;;;;;;5115054;28;20068;-60
2024/02/26 00:31:12;;;;;;;11.13;3.45;;;27.60;40.60;;;;;;5112044;27;20064;-60
2024/02/26 00:33:38;;;;;;;13.55;2.85;;;27.50;40.90;;;;;;5111071;27;20099;-62
2024/02/26 00:36:05;;;;;;;18.70;2.35;;;27.40;41.10;;;;;;5115599;28;20068;-62
2024/02/26 00:38:32;;;;;;;14.63;3.05;;;27.40;41.10;;;;;;5111507;28;20099;-58
2024/02/26 00:40:59;;;;;;;17.83;7.13;;;27.20;41.90;;;;;;5110922;28;20079;-61
2024/02/26 00:43:26;;;;;;;19.08;8.02;;;27.10;41.70;;;;;;5114467;27;20064;-61
2024/02/26 00:45:52;;;;;;;19.35;4.80;;;26.90;42.10;;;;;;5114282;28;20117;-59
2024/02/26 00:48:18;;;;;;;12.75;3.10;;;26.80;43.00;;;;;;5114497;28;20105;-61
2024/02/26 00:50:45;;;;;;;13.70;3.67;;;26.70;42.90;;;;;;5110550;28;20069;-59
2024/02/26 00:53:11;;;;;;;11.15;4.35;;;26.60;43.70;;;;;;5113406;28;20074;-59
2024/02/26 00:55:38;;;;;;;19.40;5.18;;;26.50;43.60;;;;;;5113588;28;20080;-59
2024/02/26 00:58:04;;;;;;;19.98;4.35;;;26.30;43.80;;;;;;5112479;28;20079;-59
2024/02/26 01:00:31;;;;;;;13.07;3.10;;;26.30;44.30;;;;;;5114339;28;20075;-59
2024/02/26 01:02:59;;;;;;;15.27;2.78;;;26.30;43.90;;;;;;5114496;28;20067;-60
2024/02/26 01:05:25;;;;;;;9.57;2.28;;;26.20;44.00;;;;;;5115975;28;20153;-60
2024/02/26 01:07:52;;;;;;;14.02;2.30;;;26.10;44.10;;;;;;5114434;28;20222;-59
2024/02/26 01:10:18;;;;;;;29.40;3.45;;;26.00;44.30;;;;;;5115946;28;20084;-61
2024/02/26 01:12:45;;;;;;;17.95;3.20;;;25.90;44.30;;;;;;5111009;28;20190;-60
2024/02/26 01:15:11;;;;;;;18.02;3.42;;;25.80;44.60;;;;;;5113981;28;20115;-59
2024/02/26 01:17:38;;;;;;;22.20;3.95;;;25.80;44.10;;;;;;5112725;27;20067;-59
2024/02/26 01:20:05;;;;;;;28.88;4.78;;;25.70;44.50;;;;;;5111897;27;20103;-59
2024/02/26 01:22:32;;;;;;;21.73;4.10;;;25.70;44.80;;;;;;5111760;27;20099;-59
2024/02/26 01:24:58;;;;;;;26.75;3.75;;;25.60;44.40;;;;;;5115005;28;20072;-60
2024/02/26 01:27:27;;;;;;;23.98;4.40;;;25.50;44.40;;;;;;5112754;28;21332;-60
2024/02/26 01:29:53;;;;;;;26.50;8.55;;;25.40;45.30;;;;;;5115594;27;20587;-59
2024/02/26 01:32:20;;;;;;;29.23;7.97;;;25.20;45.20;;;;;;5107378;28;20437;-59
2024/02/26 01:34:46;;;;;;;35.47;8.02;;;25.10;45.20;;;;;;5112258;28;20568;-63
2024/02/26 01:37:13;;;;;;;21.27;6.90;;;25.10;45.40;;;;;;5116332;27;20080;-59
2024/02/26 01:39:41;;;;;;;19.00;6.60;;;24.90;45.50;;;;;;5116868;27;20064;-59
2024/02/26 01:42:08;;;;;;;19.70;5.97;;;24.80;46.10;;;;;;5117276;27;20076;-59
2024/02/26 01:44:34;;;;;;;22.55;7.68;;;24.70;46.60;;;;;;5116466;27;20490;-59
2024/02/26 01:47:02;;;;;;;23.85;5.78;;;24.70;46.50;;;;;;5117194;27;21294;-58
2024/02/26 01:49:29;;;;;;;24.05;5.38;;;24.50;46.50;;;;;;5110127;27;20099;-62
2024/02/26 01:51:57;;;;;;;21.05;5.25;;;24.50;46.70;;;;;;5117046;27;20159;-59
2024/02/26 01:54:24;;;;;;;17.92;4.63;;;24.30;46.80;;;;;;5109912;27;20104;-59
2024/02/26 01:56:51;;;;;;;20.38;5.18;;;24.20;47.50;;;;;;5111369;27;20133;-61
2024/02/26 01:59:18;;;;;;;16.17;5.80;;;24.10;47.60;;;;;;5108308;27;20840;-59
2024/02/26 02:01:47;;;;;;;19.85;6.78;;;24.00;48.20;;;;;;5115486;27;20068;-59
2024/02/26 02:04:15;;;;;;;31.50;6.88;;;23.90;49.10;;;;;;5115385;27;20171;-58
2024/02/26 02:06:45;;;;;;;30.70;7.43;;;23.80;49.60;;;;;;5110594;27;20079;-58
2024/02/26 02:09:13;;;;;;;34.15;7.80;;;23.80;49.40;;;;;;5113627;27;20068;-60
2024/02/26 02:11:41;;;;;;;38.47;7.88;;;23.70;49.60;;;;;;5115391;27;20068;-59
2024/02/26 02:14:07;;;;;;;32.58;8.18;;;23.70;49.60;;;;;;5112657;27;20143;-60
2024/02/26 02:16:34;;;;;;;77.70;9.77;;;23.50;50.30;;;;;;5111537;27;20167;-64
2024/02/26 02:19:01;;;;;;;49.67;8.82;;;23.50;50.20;;;;;;5113038;27;20080;-59
2024/02/26 02:21:27;;;;;;;42.08;9.73;;;23.50;50.60;;;;;;5117180;27;20068;-58
2024/02/26 02:23:54;;;;;;;39.65;10.45;;;23.40;50.70;;;;;;5116017;27;20949;-59
2024/02/26 02:26:21;;;;;;;47.97;11.70;;;23.40;51.10;;;;;;5113654;27;20087;-59
2024/02/26 02:28:48;;;;;;;55.13;16.48;;;23.20;51.10;;;;;;5117557;27;20071;-58
2024/02/26 02:31:15;;;;;;;66.53;19.98;;;23.20;52.50;;;;;;5108322;27;20083;-59
2024/02/26 02:33:42;;;;;;;79.50;22.33;;;23.10;52.00;;;;;;5116466;27;20091;-59
2024/02/26 02:36:10;;;;;;;75.53;22.17;;;23.10;51.90;;;;;;5119838;27;20072;-65
2024/02/26 02:38:38;;;;;;;71.50;19.50;;;23.70;52.10;;;;;;5120462;27;20147;-61
2024/02/26 02:41:05;;;;;;;71.10;16.45;;;24.40;50.70;;;;;;5122836;27;20103;-61
2024/02/26 02:43:31;;;;;;;70.55;19.65;;;24.90;49.40;;;;;;5124841;27;20067;-60
2024/02/26 02:45:58;;;;;;;58.33;17.10;;;25.30;49.30;;;;;;5128075;27;20072;-60
2024/02/26 02:48:24;;;;;;;96.03;16.42;;;25.40;48.70;;;;;;5114164;27;20071;-59
2024/02/26 02:50:51;;;;;;;87.20;16.88;;;25.60;48.50;;;;;;5108090;28;20563;-58
2024/02/26 02:53:18;;;;;;;63.88;13.27;;;25.30;49.40;;;;;;5129037;27;20154;-62
2024/02/26 02:55:44;;;;;;;67.20;14.18;;;25.40;49.30;;;;;;5113748;27;20225;-62
2024/02/26 02:58:11;;;;;;;66.13;11.50;;;25.40;49.50;;;;;;5127211;27;20067;-61
2024/02/26 03:00:37;;;;;;;61.08;11.20;;;25.60;48.90;;;;;;5121850;27;20086;-62
2024/02/26 03:03:04;;;;;;;66.03;11.95;;;25.70;48.20;;;;;;5113366;27;20425;-61
2024/02/26 03:05:30;;;;;;;66.45;12.73;;;25.20;48.80;;;;;;5111565;27;20514;-62
2024/02/26 03:07:57;;;;;;;50.85;14.43;;;25.00;49.40;;;;;;5124842;27;20068;-62
2024/02/26 03:10:24;;;;;;;53.38;13.02;;;24.90;49.90;;;;;;5112333;27;20461;-62
2024/02/26 03:12:51;;;;;;;47.78;11.30;;;24.80;50.10;;;;;;5109263;27;20142;-60
2024/02/26 03:15:17;;;;;;;62.42;26.63;;;24.70;50.50;;;;;;5097560;27;20137;-62
2024/02/26 03:17:44;;;;;;;40.60;10.40;;;24.70;50.90;;;;;;5117353;27;20091;-61
2024/02/26 03:20:10;;;;;;;46.67;11.00;;;24.60;50.80;;;;;;5115382;27;20107;-60
2024/02/26 03:22:39;;;;;;;43.33;9.73;;;24.50;50.90;;;;;;5111667;27;20615;-62
2024/02/26 03:25:07;;;;;;;59.53;11.10;;;24.40;51.20;;;;;;5119063;27;20072;-64
2024/02/26 03:27:33;;;;;;;42.72;11.18;;;24.30;51.40;;;;;;5110439;27;20571;-60
2024/02/26 03:30:00;;;;;;;41.45;11.18;;;24.20;51.50;;;;;;5115872;27;20064;-62
2024/02/26 03:32:26;;;;;;;50.88;10.65;;;24.10;51.50;;;;;;5098579;27;20068;-60
2024/02/26 03:34:55;;;;;;;37.65;10.82;;;24.00;51.80;;;;;;5105558;27;20103;-60
2024/02/26 03:37:22;;;;;;;70.45;12.27;;;23.90;52.30;;;;;;5110997;27;20511;-62
2024/02/26 03:39:48;;;;;;;63.58;12.52;;;23.80;52.40;;;;;;5118895;27;20098;-61
2024/02/26 03:42:16;;;;;;;63.00;13.07;;;23.80;52.90;;;;;;5100284;27;20073;-61
2024/02/26 03:44:42;;;;;;;51.97;13.07;;;23.90;52.80;;;;;;5106134;27;20072;-62
2024/02/26 03:47:09;;;;;;;51.22;15.60;;;23.80;53.10;;;;;;5103097;27;20068;-61
2024/02/26 03:49:35;;;;;;;55.70;15.77;;;23.60;53.30;;;;;;5100277;27;20151;-60
2024/02/26 03:52:02;;;;;;;48.80;17.40;;;23.50;53.40;;;;;;5108180;27;20061;-61
2024/02/26 03:54:30;;;;;;;58.13;15.52;;;23.40;53.70;;;;;;5105382;27;20092;-61
2024/02/26 03:56:56;;;;;;;48.90;15.25;;;23.40;54.20;;;;;;5112781;27;20470;-60
2024/02/26 03:59:24;;;;;;;54.42;16.05;;;23.30;54.70;;;;;;5110970;27;20091;-63
2024/02/26 04:01:51;;;;;;;70.82;16.85;;;23.30;54.80;;;;;;5108043;27;20068;-61
2024/02/26 04:04:18;;;;;;;59.92;15.50;;;23.20;55.00;;;;;;5108899;27;20074;-60
2024/02/26 04:06:47;;;;;;;63.15;16.35;;;23.20;55.20;;;;;;5105171;27;20068;-60
2024/02/26 04:09:15;;;;;;;62.63;16.92;;;23.10;54.70;;;;;;5109011;27;20129;-60
2024/02/26 04:11:43;;;;;;;64.35;17.25;;;23.00;55.60;;;;;;5105834;27;20419;-60
2024/02/26 04:14:11;;;;;;;55.58;17.15;;;23.00;56.20;;;;;;5104482;27;20114;-60
2024/02/26 04:16:38;;;;;;;65.40;17.00;;;23.00;56.80;;;;;;5105067;27;20080;-65
2024/02/26 04:19:04;;;;;;;52.25;17.98;;;22.90;56.20;;;;;;5104598;27;20075;-63
2024/02/26 04:21:31;;;;;;;61.13;20.27;;;22.90;55.60;;;;;;5107553;28;20068;-60
2024/02/26 04:24:00;;;;;;;69.72;18.30;;;22.80;55.60;;;;;;5106021;28;20118;-60
2024/02/26 04:26:28;;;;;;;86.82;19.80;;;22.90;56.20;;;;;;5106097;28;20167;-60
2024/02/26 04:28:55;;;;;;;74.22;20.00;;;22.90;56.00;;;;;;5107827;28;20085;-59
2024/02/26 04:31:21;;;;;;;67.32;19.35;;;22.90;56.40;;;;;;5103626;28;20456;-61
2024/02/26 04:33:48;;;;;;;78.47;20.73;;;22.80;55.80;;;;;;5111308;28;20096;-60
2024/02/26 04:36:16;;;;;;;82.00;21.73;;;22.80;56.40;;;;;;5108834;28;20155;-60
2024/02/26 04:38:44;;;;;;;72.35;19.27;;;22.70;57.30;;;;;;5107618;28;20064;-60
2024/02/26 04:41:10;;;;;;;71.28;19.63;;;22.70;56.00;;;;;;5107297;28;20072;-60
2024/02/26 04:43:41;;;;;;;56.70;20.67;;;22.70;56.10;;;;;;5103528;28;20075;-60
2024/02/26 04:46:08;;;;;;;71.07;19.60;;;22.50;56.00;;;;;;5113698;28;20135;-59
2024/02/26 04:48:36;;;;;;;58.35;17.95;;;22.40;55.90;;;;;;5106355;28;20059;-62
2024/02/26 04:51:03;;;;;;;95.63;18.50;;;22.40;55.80;;;;;;5108635;27;20125;-61
2024/02/26 04:53:29;;;;;;;63.35;16.23;;;22.40;55.60;;;;;;5103334;28;20088;-59
2024/02/26 04:55:56;;;;;;;64.65;16.65;;;22.40;55.30;;;;;;5111510;28;20074;-59
2024/02/26 04:58:22;;;;;;;72.57;16.80;;;22.40;55.10;;;;;;5102897;28;20515;-65
2024/02/26 05:00:49;;;;;;;59.22;14.00;;;22.50;55.10;;;;;;5111773;28;20071;-60
2024/02/26 05:03:15;;;;;;;55.83;13.07;;;22.40;55.10;;;;;;5102449;27;20645;-61
2024/02/26 05:05:43;;;;;;;57.88;13.98;;;22.40;55.30;;;;;;5106316;28;20514;-60
2024/02/26 05:08:10;;;;;;;55.00;14.20;;;22.50;55.50;;;;;;5103457;28;20158;-60
2024/02/26 05:10:40;;;;;;;44.03;13.75;;;22.50;55.90;;;;;;5107029;28;20175;-60
2024/02/26 05:13:07;;;;;;;47.22;13.32;;;22.60;56.80;;;;;;5110721;28;20153;-60
2024/02/26 05:15:34;;;;;;;51.85;11.95;;;22.50;57.10;;;;;;5106868;28;20096;-61
2024/02/26 05:18:00;;;;;;;49.70;11.25;;;22.50;57.30;;;;;;5097629;28;20163;-60
2024/02/26 05:20:27;;;;;;;53.83;11.23;;;22.40;57.30;;;;;;5108036;28;20064;-60
2024/02/26 05:22:53;;;;;;;36.85;10.27;;;22.40;58.00;;;;;;5108936;28;20151;-59
2024/02/26 05:25:20;;;;;;;43.38;10.32;;;22.30;57.90;;;;;;5106649;28;20117;-60
2024/02/26 05:27:46;;;;;;;56.10;10.00;;;22.30;58.60;;;;;;5103488;28;20064;-60
2024/02/26 05:30:13;;;;;;;35.65;8.48;;;22.30;59.30;;;;;;5109381;28;20060;-60
2024/02/26 05:32:40;;;;;;;27.80;7.38;;;22.20;60.20;;;;;;5111618;28;20086;-60
2024/02/26 05:35:08;;;;;;;39.38;14.82;;;22.20;60.80;;;;;;5112039;28;20190;-60
2024/02/26 05:37:35;;;;;;;28.95;8.02;;;22.10;62.00;;;;;;5107988;28;20597;-61
2024/02/26 05:40:04;;;;;;;30.13;8.27;;;22.00;63.10;;;;;;5100202;27;20126;-59
2024/02/26 05:42:31;;;;;;;26.48;6.90;;;21.90;63.20;;;;;;5105257;28;20074;-62
2024/02/26 05:44:58;;;;;;;26.10;6.38;;;21.90;63.90;;;;;;5102363;28;20073;-60
2024/02/26 05:47:24;;;;;;;19.13;6.22;;;21.80;64.80;;;;;;5101581;28;20068;-61
2024/02/26 05:49:50;;;;;;;19.73;5.97;;;21.70;65.70;;;;;;5104939;28;20080;-61
2024/02/26 05:52:17;;;;;;;22.38;5.78;;;21.70;67.00;;;;;;5112233;28;20072;-60
2024/02/26 05:54:44;;;;;;;18.35;5.18;;;21.80;67.00;;;;;;5110057;28;20099;-60
2024/02/26 05:57:11;;;;;;;19.48;5.47;;;21.80;67.40;;;;;;5111188;28;20132;-59
2024/02/26 05:59:37;;;;;;;18.98;4.95;;;22.00;67.20;;;;;;5096363;28;20064;-60
2024/02/26 06:02:04;;;;;;;18.00;4.43;;;21.90;67.30;;;;;;5111193;28;20079;-61
2024/02/26 06:04:30;;;;;;;14.20;4.55;;;21.90;67.60;;;;;;5106430;28;20075;-61
2024/02/26 06:06:57;;;;;;;17.75;5.13;;;21.90;69.00;;;;;;5100765;28;20096;-59
2024/02/26 06:09:23;;;;;;;15.55;4.80;;;21.90;68.20;;;;;;5110419;28;20068;-60
2024/02/26 06:11:50;;;;;;;11.82;4.43;;;21.90;68.20;;;;;;5100123;28;20080;-59
2024/02/26 06:14:18;;;;;;;17.60;4.63;;;21.80;68.20;;;;;;5109648;28;20194;-60
2024/02/26 06:16:45;;;;;;;14.30;4.75;;;21.80;68.30;;;;;;5107871;28;20075;-62
2024/02/26 06:19:11;;;;;;;16.85;5.40;;;21.80;68.50;;;;;;5102556;28;20084;-59
2024/02/26 06:21:38;;;;;;;24.15;5.82;;;21.80;68.40;;;;;;5110232;28;20430;-59
2024/02/26 06:24:04;;;;;;;13.98;5.63;;;21.70;69.00;;;;;;5107811;28;20220;-60
2024/02/26 06:26:33;;;;;;;15.15;4.50;;;21.60;69.10;;;;;;5103588;28;20068;-58
2024/02/26 06:28:59;;;;;;;19.02;5.25;;;21.60;70.20;;;;;;5102640;28;20064;-60
2024/02/26 06:31:27;;;;;;;14.18;4.43;;;21.50;69.80;;;;;;5109324;28;20064;-59
2024/02/26 06:33:55;;;;;;;16.02;4.72;;;21.40;70.50;;;;;;5108268;28;20096;-59
2024/02/26 06:36:22;;;;;;;21.13;5.20;;;21.30;70.60;;;;;;5102046;28;20064;-60
2024/02/26 06:38:49;;;;;;;21.85;4.57;;;21.20;70.60;;;;;;5107917;28;20080;-60
2024/02/26 06:41:15;;;;;;;21.88;4.75;;;21.10;70.90;;;;;;5110046;27;20076;-60
2024/02/26 06:43:42;;;;;;;15.93;4.57;;;21.20;71.90;;;;;;5109057;28;20084;-60
2024/02/26 06:46:08;;;;;;;19.15;4.78;;;21.20;71.50;;;;;;5107770;28;20087;-60
2024/02/26 06:48:36;;;;;;;20.10;5.63;;;21.20;71.50;;;;;;5102144;28;20464;-60
2024/02/26 06:51:03;;;;;;;24.02;5.53;;;21.10;71.40;;;;;;5107823;28;20119;-60
2024/02/26 06:53:29;;;;;;;16.58;4.68;;;21.00;71.60;;;;;;5103112;28;20118;-61
2024/02/26 06:55:56;;;;;;;42.65;20.88;;;20.90;72.20;;;;;;5099579;28;20073;-61
2024/02/26 06:58:23;;;;;;;19.30;5.22;;;20.80;72.40;;;;;;5106579;28;20068;-60
2024/02/26 07:00:49;;;;;;;21.10;4.80;;;20.80;72.50;;;;;;5109320;28;20152;-60
2024/02/26 07:03:16;;;;;;;20.67;4.35;;;20.70;72.70;;;;;;5105362;28;20072;-62
2024/02/26 07:05:44;;;;;;;17.58;5.75;;;20.70;72.70;;;;;;5110259;28;20075;-60
2024/02/26 07:08:10;;;;;;;19.38;5.22;;;20.60;73.20;;;;;;5108980;28;20121;-64
2024/02/26 07:10:37;;;;;;;19.90;5.50;;;20.50;73.70;;;;;;5097113;28;20401;-60
2024/02/26 07:13:04;;;;;;;18.88;5.18;;;20.50;74.00;;;;;;5109110;28;20115;-59
2024/02/26 07:15:31;;;;;;;13.18;4.78;;;20.50;74.40;;;;;;5104047;28;20092;-61
2024/02/26 07:18:02;;;;;;;23.95;4.95;;;20.40;74.70;;;;;;5109946;28;20202;-60
2024/02/26 07:20:30;;;;;;;16.67;5.10;;;20.30;75.00;;;;;;5108259;28;20068;-60
2024/02/26 07:22:57;;;;;;;18.10;5.63;;;20.20;75.80;;;;;;5107135;28;20608;-60
2024/02/26 07:25:24;;;;;;;22.27;5.22;;;20.30;75.50;;;;;;5109570;27;20068;-60
2024/02/26 07:27:51;;;;;;;19.13;4.93;;;20.30;75.40;;;;;;5108435;28;20068;-60
2024/02/26 07:30:18;;;;;;;19.85;5.35;;;20.10;76.20;;;;;;5103758;28;20109;-60
2024/02/26 07:32:44;;;;;;;21.95;5.53;;;20.00;76.30;;;;;;5100339;28;20068;-60
2024/02/26 07:35:11;;;;;;;19.33;5.10;;;20.00;77.00;;;;;;5104009;28;20534;-65
2024/02/26 07:37:37;;;;;;;23.15;5.95;;;19.90;77.00;;;;;;5100976;28;20068;-60
2024/02/26 07:40:05;;;;;;;22.42;6.05;;;19.90;76.80;;;;;;5109631;28;20579;-61
2024/02/26 07:42:32;;;;;;;28.05;6.07;;;19.90;76.90;;;;;;5105274;28;20064;-58
2024/02/26 07:44:58;;;;;;;24.88;8.10;;;19.80;77.90;;;;;;5106306;28;20068;-60
2024/02/26 07:47:25;;;;;;;29.00;7.95;;;19.70;77.70;;;;;;5106346;28;20872;-60
2024/02/26 07:49:51;;;;;;;26.90;8.77;;;19.70;77.80;;;;;;5105497;28;20071;-61
2024/02/26 07:52:18;;;;;;;28.30;8.23;;;19.60;78.80;;;;;;5106953;28;20075;-60
2024/02/26 07:54:44;;;;;;;23.02;6.93;;;19.50;78.80;;;;;;5107546;28;20305;-59
2024/02/26 07:57:11;;;;;;;40.70;6.50;;;19.40;79.00;;;;;;5108999;28;20071;-61
2024/02/26 07:59:37;;;;;;;23.27;6.50;;;19.40;79.00;;;;;;5105666;28;20072;-61
2024/02/26 08:02:05;;;;;;;22.98;5.90;;;19.40;79.50;;;;;;5101106;28;20083;-59
2024/02/26 08:04:32;;;;;;;24.27;6.28;;;19.40;79.40;;;;;;5108918;28;20343;-60
2024/02/26 08:06:58;;;;;;;26.38;6.28;;;19.30;80.90;;;;;;5108757;28;20087;-60
2024/02/26 08:09:24;;;;;;;18.50;5.80;;;19.20;80.50;;;;;;5109040;28;20099;-61
2024/02/26 08:11:51;;;;;;;20.55;5.95;;;19.30;81.20;;;;;;5099680;28;20164;-61
2024/02/26 08:14:17;;;;;;;28.60;6.20;;;19.30;80.70;;;;;;5094153;28;20104;-60
2024/02/26 08:16:44;;;;;;;26.20;7.00;;;19.30;80.40;;;;;;5107750;28;20406;-60
2024/02/26 08:19:13;;;;;;;33.13;6.47;;;19.30;80.60;;;;;;5100158;28;20057;-61
2024/02/26 08:21:39;;;;;;;32.75;6.43;;;19.10;81.00;;;;;;5095738;28;20068;-60
2024/02/26 08:24:06;;;;;;;25.45;6.30;;;19.10;81.20;;;;;;5098432;28;20072;-60
2024/02/26 08:26:32;;;;;;;29.02;6.43;;;19.00;82.20;;;;;;5108877;28;20121;-60
2024/02/26 08:28:59;;;;;;;32.58;6.90;;;19.00;82.00;;;;;;5099383;28;20163;-59
2024/02/26 08:31:27;;;;;;;34.53;7.55;;;18.90;82.10;;;;;;5090498;28;20114;-60
2024/02/26 08:33:53;;;;;;;45.10;9.35;;;19.00;82.20;;;;;;5105088;28;20549;-60
2024/02/26 08:36:20;;;;;;;56.10;12.90;;;19.10;82.20;;;;;;5104382;28;20443;-59
2024/02/26 08:38:46;;;;;;;73.93;13.20;;;19.10;81.90;;;;;;5097437;28;20069;-61
2024/02/26 08:41:13;;;;;;;52.80;14.95;;;19.20;82.40;;;;;;5104046;28;20154;-60
2024/02/26 08:43:40;;;;;;;56.70;14.30;;;19.10;82.00;;;;;;5106541;28;20522;-62
2024/02/26 08:46:10;;;;;;;63.13;14.57;;;19.20;81.60;;;;;;5107537;28;20405;-60
2024/02/26 08:48:36;;;;;;;48.15;14.13;;;19.20;81.50;;;;;;5110064;28;20064;-61
2024/02/26 08:51:08;;;;;;;67.07;15.80;;;19.10;82.50;;;;;;5113183;28;20072;-60
2024/02/26 08:53:35;;;;;;;55.55;15.10;;;19.00;81.80;;;;;;5106519;28;20518;-60
2024/02/26 08:56:02;;;;;;;68.97;16.88;;;19.10;81.70;;;;;;5111900;27;20076;-60
2024/02/26 08:58:29;;;;;;;58.72;15.80;;;19.00;81.50;;;;;;5108414;28;20140;-62
2024/02/26 09:00:55;;;;;;;76.22;33.03;;;19.00;82.20;;;;;;5112844;28;20402;-60
2024/02/26 09:03:22;;;;;;;67.07;17.50;;;19.00;82.10;;;;;;5110241;28;20071;-59
2024/02/26 09:05:49;;;;;;;63.60;17.27;;;19.00;82.00;;;;;;5112653;28;20425;-59
2024/02/26 09:08:15;;;;;;;71.50;17.50;;;19.00;82.40;;;;;;5110308;28;20125;-61
2024/02/26 09:10:42;;;;;;;72.22;17.80;;;18.90;82.70;;;;;;5109768;28;20164;-59
2024/02/26 09:13:09;;;;;;;64.65;17.08;;;18.90;83.10;;;;;;5108148;28;20068;-60
2024/02/26 09:15:35;;;;;;;56.92;16.00;;;18.90;83.10;;;;;;5104400;28;20185;-59
2024/02/26 09:18:02;;;;;;;60.80;15.25;;;19.00;82.90;;;;;;5108150;28;20563;-59
2024/02/26 09:20:29;;;;;;;55.35;17.27;;;18.90;83.30;;;;;;5097931;28;20068;-60
2024/02/26 09:22:55;;;;;;;67.95;16.50;;;18.80;83.70;;;;;;5101220;28;20448;-59
2024/02/26 09:25:22;;;;;;;63.90;16.15;;;18.70;83.40;;;;;;5094905;28;20068;-59
2024/02/26 09:27:48;;;;;;;79.60;16.40;;;18.70;83.90;;;;;;5110538;28;20064;-60
2024/02/26 09:30:15;;;;;;;54.17;16.08;;;18.80;84.10;;;;;;5106080;28;20422;-60
2024/02/26 09:32:46;;;;;;;64.45;16.88;;;18.70;84.10;;;;;;5105821;28;20078;-60
2024/02/26 09:35:13;;;;;;;55.60;15.00;;;18.60;85.20;;;;;;5094469;28;20088;-61
2024/02/26 09:37:39;;;;;;;58.28;16.00;;;18.60;85.10;;;;;;5100985;28;20068;-60
2024/02/26 09:40:06;;;;;;;60.70;15.70;;;18.50;85.40;;;;;;5111259;28;20402;-60
2024/02/26 09:42:34;;;;;;;47.45;15.90;;;18.40;86.40;;;;;;5112404;28;20072;-60
2024/02/26 09:45:07;;;;;;;54.63;16.75;;;18.40;86.00;;;;;;5098868;28;20080;-60
2024/02/26 09:47:35;;;;;;;63.38;15.90;;;18.30;86.20;;;;;;5095026;28;20168;-60
2024/02/26 09:50:03;;;;;;;66.68;16.10;;;18.30;87.00;;;;;;5102584;28;20099;-59
2024/02/26 09:52:33;;;;;;;60.28;16.65;;;18.30;86.70;;;;;;5106779;28;20204;-59
2024/02/26 09:55:00;;;;;;;55.60;16.33;;;18.40;86.50;;;;;;5109203;28;20099;-67
2024/02/26 09:57:27;;;;;;;52.05;15.27;;;18.30;86.30;;;;;;5106560;28;20068;-59
2024/02/26 09:59:58;;;;;;;59.78;16.25;;;18.30;87.20;;;;;;5109169;28;20060;-60
2024/02/26 10:02:25;;;;;;;49.97;15.18;;;18.20;87.30;;;;;;5110517;28;20064;-59
2024/02/26 10:04:53;;;;;;;59.47;16.10;;;18.20;87.40;;;;;;5110023;28;20109;-61
2024/02/26 10:07:20;;;;;;;60.90;15.75;;;18.20;87.50;;;;;;5104942;28;20072;-60
2024/02/26 10:09:47;;;;;;;59.50;15.80;;;18.20;87.40;;;;;;5106928;28;20068;-60
2024/02/26 10:12:16;;;;;;;54.75;14.95;;;18.10;87.80;;;;;;5105898;28;20079;-61
2024/02/26 10:14:43;;;;;;;44.95;14.05;;;18.20;87.30;;;;;;5106591;28;20142;-61
2024/02/26 10:17:10;;;;;;;59.83;14.70;;;18.10;87.40;;;;;;5103270;27;20097;-61
2024/02/26 10:19:36;;;;;;;70.63;16.38;;;18.00;88.70;;;;;;5098893;28;20113;-61
2024/02/26 10:22:04;;;;;;;58.97;15.80;;;18.00;89.00;;;;;;5101850;28;20075;-60
2024/02/26 10:24:31;;;;;;;50.08;15.18;;;18.00;89.30;;;;;;5109422;28;20113;-60
2024/02/26 10:26:57;;;;;;;59.17;15.60;;;18.10;88.60;;;;;;5110694;28;20104;-61
2024/02/26 10:29:27;;;;;;;52.35;16.67;;;18.00;88.60;;;;;;5105158;28;20149;-61
2024/02/26 10:31:54;;;;;;;57.78;15.93;;;17.90;88.70;;;;;;5093189;28;20083;-60
2024/02/26 10:34:20;;;;;;;59.10;16.75;;;18.00;89.10;;;;;;5107344;28;20096;-60
2024/02/26 10:36:47;;;;;;;59.13;15.75;;;18.00;89.70;;;;;;5105021;28;20074;-59
2024/02/26 10:39:14;;;;;;;59.45;16.05;;;17.90;89.30;;;;;;5105282;28;20076;-59
2024/02/26 10:41:42;;;;;;;60.00;15.18;;;17.90;90.00;;;;;;5110401;28;20085;-59
2024/02/26 10:44:12;;;;;;;50.05;14.60;;;17.90;90.00;;;;;;5108151;28;20161;-60
2024/02/26 10:46:42;;;;;;;57.88;15.52;;;18.00;89.80;;;;;;5103019;28;20068;-59
2024/02/26 10:49:19;;;;;;;57.97;15.13;;;17.90;90.10;;;;;;5109791;28;20609;-60
2024/02/26 10:51:54;;;;;;;50.50;16.20;;;17.90;90.10;;;;;;5093341;28;20179;-67
2024/02/26 10:54:22;;;;;;;63.40;16.77;;;17.80;90.10;;;;;;5108893;28;20103;-59
2024/02/26 10:56:50;;;;;;;53.13;15.65;;;17.80;90.20;;;;;;5110665;28;20107;-59
2024/02/26 10:59:20;;;;;;;52.38;15.25;;;17.90;90.30;;;;;;5104014;28;20079;-59
2024/02/26 11:01:49;;;;;;;51.95;15.50;;;17.90;90.00;;;;;;5104788;28;20094;-67
2024/02/26 11:04:17;;;;;;;65.13;16.70;;;17.90;90.30;;;;;;5108390;28;20080;-60
2024/02/26 11:06:45;;;;;;;59.78;16.25;;;17.80;90.70;;;;;;5108609;28;20078;-60
2024/02/26 11:09:14;;;;;;;51.22;17.65;;;17.80;90.40;;;;;;5106451;27;20125;-59
2024/02/26 11:11:41;;;;;;;59.80;16.35;;;17.70;90.60;;;;;;5096896;28;20072;-59
2024/02/26 11:14:09;;;;;;;52.30;16.83;;;17.70;90.60;;;;;;5106356;28;20144;-59
2024/02/26 11:16:37;;;;;;;66.65;17.10;;;17.60;90.80;;;;;;5097850;28;20068;-60
2024/02/26 11:19:06;;;;;;;56.03;16.67;;;17.70;90.80;;;;;;5106650;28;20068;-61
2024/02/26 11:21:43;;;;;;;54.67;16.85;;;17.70;90.90;;;;;;5107926;28;20107;-60
2024/02/26 11:24:19;;;;;;;54.08;17.08;;;17.70;90.70;;;;;;5107049;28;20071;-60
2024/02/26 11:26:50;;;;;;;47.75;16.13;;;17.60;90.80;;;;;;5108624;28;20076;-60
2024/02/26 11:29:22;;;;;;;48.42;16.20;;;17.50;91.00;;;;;;5106624;28;20068;-60
2024/02/26 11:31:49;;;;;;;48.70;16.13;;;17.60;91.40;;;;;;5091215;28;20064;-60
2024/02/26 11:34:16;;;;;;;52.00;15.63;;;17.60;91.10;;;;;;5103819;28;20096;-60
2024/02/26 11:36:43;;;;;;;54.35;17.65;;;17.60;91.10;;;;;;5099995;28;20133;-61
2024/02/26 11:39:16;;;;;;;52.45;17.13;;;17.60;91.00;;;;;;5098320;27;20421;-67
2024/02/26 11:41:43;;;;;;;68.40;18.38;;;17.50;91.10;;;;;;5100255;28;20163;-60
2024/02/26 11:44:10;;;;;;;61.10;18.88;;;17.50;91.10;;;;;;5103773;28;20475;-61
2024/02/26 11:46:42;;;;;;;64.88;19.75;;;17.50;91.20;;;;;;5104887;28;20092;-61
2024/02/26 11:49:27;;;;;;;57.78;19.73;;;17.50;91.60;;;;;;5107247;28;20173;-59
2024/02/26 11:51:55;;;;;;;67.28;21.42;;;17.50;91.60;;;;;;5103269;28;20076;-60
2024/02/26 11:54:56;;;;;;;61.63;20.67;;;17.60;91.40;;;;;;5105984;28;20182;-60
2024/02/26 11:57:39;;;;;;;69.93;22.10;;;17.60;90.90;;;;;;5092907;28;20083;-60
2024/02/26 12:00:13;;;;;;;67.43;24.08;;;17.60;91.00;;;;;;5108491;28;20575;-62
2024/02/26 12:02:47;;;;;;;70.93;22.13;;;17.60;90.90;;;;;;5107627;28;20081;-61
2024/02/26 12:05:20;;;;;;;59.00;21.75;;;17.60;90.80;;;;;;5104785;28;20094;-59
2024/02/26 12:07:49;;;;;;;67.82;21.27;;;17.50;90.80;;;;;;5108397;28;20125;-59
2024/02/26 12:10:22;;;;;;;77.55;24.73;;;17.50;91.10;;;;;;5090307;28;20080;-60
2024/02/26 12:12:52;;;;;;;71.05;24.10;;;17.40;91.50;;;;;;5104766;28;20070;-60
2024/02/26 12:15:21;;;;;;;71.43;27.92;;;17.50;91.30;;;;;;5105584;28;20108;-61
2024/02/26 12:17:50;;;;;;;76.72;26.92;;;17.50;91.10;;;;;;5107222;28;20064;-61
2024/02/26 12:20:17;;;;;;;77.15;26.45;;;17.60;90.90;;;;;;5106874;28;20080;-60
2024/02/26 12:22:49;;;;;;;82.15;26.73;;;17.60;90.70;;;;;;5101386;28;20072;-61
2024/02/26 12:25:16;;;;;;;81.25;28.50;;;17.40;90.70;;;;;;5100405;28;20092;-60
2024/02/26 12:27:42;;;;;;;81.32;29.45;;;17.40;91.20;;;;;;5103136;28;20081;-60
2024/02/26 12:30:09;;;;;;;90.95;28.90;;;17.40;91.40;;;;;;5097582;28;20985;-60
2024/02/26 12:32:36;;;;;;;91.50;29.83;;;17.40;91.20;;;;;;5107516;28;20110;-61